Time;durP1;ratioP1;P1;durP2;ratioP2;P2;SDS_P1;SDS_P2;PMS_P1;PMS_P2;Temp;Humidity;BMP_temperature;BMP_pressure;BME280_temperature;BME280_humidity;BME280_pressure;Samples;Min_cycle;Max_cycle;Signal;HPM_P1;HPM_P2
2022/08/23 00:01:34;;;;;;;;;;;;;;;18.77;nan;99953.84;4997222;28;19913;-69
2022/08/23 00:04:02;;;;;;;;;;;;;;;18.73;nan;99962.69;5005541;28;19921;-68
2022/08/23 00:06:28;;;;;;;;;;;;;;;18.67;nan;99985.94;4997088;28;19925;-69
2022/08/23 00:08:54;;;;;;;;;;;;;;;18.63;nan;99985.75;4999368;28;19913;-69
2022/08/23 00:11:42;;;;;;;;;;;;;;;18.62;nan;100002.03;4996076;28;20551;-67
2022/08/23 00:14:07;;;;;;;;;;;;;;;;;;4996546;28;19917;-68
2022/08/23 00:16:33;;;;;;;;;;;;;;;18.43;nan;99952.16;4997391;28;19921;-67
2022/08/23 00:18:58;;;;;;;;;;;;;;;18.59;nan;99991.94;4995175;28;19923;-68
2022/08/23 00:21:23;;;;;;;;;;;;;;;18.60;nan;100004.19;4991586;28;19917;-68
2022/08/23 00:23:49;;;;;;;;;;;;;;;18.59;nan;100003.41;4996382;28;19917;-67
2022/08/23 00:26:15;;;;;;;;;;;;;;;18.57;nan;100010.88;4997291;28;19918;-68
2022/08/23 00:28:40;;;;;;;;;;;;;;;18.55;nan;100002.38;4993710;28;19956;-68
2022/08/23 00:31:06;;;;;;;;;;;;;;;18.54;nan;99992.03;4998189;28;19913;-68
2022/08/23 00:33:31;;;;;;;;;;;;;;;18.55;nan;100007.72;4989636;28;19917;-68
2022/08/23 00:35:56;;;;;;;;;;;;;;;18.55;nan;99998.94;4990494;28;19949;-69
2022/08/23 00:38:23;;;;;;;;;;;;;;;18.55;nan;100009.59;4995060;28;20391;-68
2022/08/23 00:40:49;;;;;;;;;;;;;;;;;;5001471;28;20438;-69
2022/08/23 00:49:11;;;;;;;;;;;;;;;18.40;nan;100007.94;4993587;28;19936;-67
2022/08/23 00:51:40;;;;;;;;;;;;;;;18.38;nan;100010.88;4999479;28;19925;-69
2022/08/23 00:54:08;;;;;;;;;;;;;;;18.36;nan;100007.69;4979061;28;19937;-68
2022/08/23 00:56:34;;;;;;;;;;;;;;;18.35;nan;100005.34;4994419;28;19924;-68
2022/08/23 00:58:59;;;;;;;;;;;;;;;18.31;nan;100023.75;4994929;28;19953;-68
2022/08/23 01:01:25;;;;;;;;;;;;;;;18.26;nan;100008.63;4996017;28;20371;-68
2022/08/23 01:03:53;;;;;;;;;;;;;;;18.21;nan;100006.00;4989783;28;19921;-69
2022/08/23 01:06:21;;;;;;;;;;;;;;;18.13;nan;100000.53;4996642;28;19919;-68
2022/08/23 01:08:53;;;;;;;;;;;;;;;18.12;nan;100004.28;4995984;28;19921;-68
2022/08/23 01:11:22;;;;;;;;;;;;;;;18.09;nan;99994.19;4991456;28;20359;-67
2022/08/23 01:14:17;;;;;;;;;;;;;;;18.08;nan;99988.06;4994432;28;19917;-68
2022/08/23 01:16:51;;;;;;;;;;;;;;;18.05;nan;99986.78;4976139;28;19952;-68
2022/08/23 01:19:22;;;;;;;;;;;;;;;18.07;nan;100000.56;4973567;28;19922;-68
2022/08/23 01:22:10;;;;;;;;;;;;;;;18.09;nan;99994.19;4998596;28;19913;-69
2022/08/23 01:24:36;;;;;;;;;;;;;;;18.11;nan;100006.16;4996593;28;19918;-68
2022/08/23 01:27:02;;;;;;;;;;;;;;;18.13;nan;99972.00;5000545;28;19913;-70
2022/08/23 01:29:27;;;;;;;;;;;;;;;18.14;nan;100010.91;4992419;28;19937;-68
2022/08/23 01:31:54;;;;;;;;;;;;;;;18.16;nan;100013.28;4999898;28;19917;-69
2022/08/23 01:34:20;;;;;;;;;;;;;;;;;;4999526;28;19913;-69
2022/08/23 01:36:45;;;;;;;;;;;;;;;18.15;nan;100007.16;5000340;28;19963;-68
2022/08/23 01:39:10;;;;;;;;;;;;;;;18.15;nan;100012.50;4977655;28;20300;-68
2022/08/23 01:41:38;;;;;;;;;;;;;;;18.16;nan;99992.75;4999462;28;19917;-68
2022/08/23 01:44:05;;;;;;;;;;;;;;;18.19;nan;100010.84;4996387;28;19914;-69
2022/08/23 01:46:30;;;;;;;;;;;;;;;18.21;nan;100002.56;4983777;28;20419;-69
2022/08/23 01:48:57;;;;;;;;;;;;;;;18.22;nan;100012.94;4997460;28;19921;-68
2022/08/23 01:51:23;;;;;;;;;;;;;;;18.23;nan;100009.19;4996602;28;19914;-68
2022/08/23 01:53:48;;;;;;;;;;;;;;;18.25;nan;100006.25;4997603;28;19963;-68
2022/08/23 01:56:14;;;;;;;;;;;;;;;18.26;nan;99999.84;4995498;28;19913;-68
2022/08/23 01:58:40;;;;;;;;;;;;;;;18.26;nan;100010.50;4992816;28;20522;-69
2022/08/23 02:01:05;;;;;;;;;;;;;;;18.20;nan;100001.78;4996546;28;20008;-68
2022/08/23 02:03:31;;;;;;;;;;;;;;;18.13;nan;100014.66;4992120;28;19928;-69
2022/08/23 02:05:56;;;;;;;;;;;;;;;18.13;nan;100008.53;4995856;28;19918;-67
2022/08/23 02:11:07;;;;;;;;;;;;;;;18.14;nan;100013.56;4991515;28;19928;-68
2022/08/23 02:13:32;;;;;;;;;;;;;;;18.15;nan;100014.34;4990528;28;20004;-68
2022/08/23 02:15:58;;;;;;;;;;;;;;;18.14;nan;100012.78;4994254;28;20052;-69
2022/08/23 02:18:24;;;;;;;;;;;;;;;18.13;nan;100014.66;4997829;28;19917;-68
2022/08/23 02:20:50;;;;;;;;;;;;;;;18.13;nan;100005.88;4993669;28;20384;-68
2022/08/23 02:23:16;;;;;;;;;;;;;;;18.12;nan;100018.38;4999786;28;20015;-68
2022/08/23 02:25:42;;;;;;;;;;;;;;;18.11;nan;100010.69;4995878;28;20020;-68
2022/08/23 02:28:08;;;;;;;;;;;;;;;18.07;nan;100029.09;4993765;28;20301;-67
2022/08/23 02:30:33;;;;;;;;;;;;;;;18.03;nan;100034.22;4988522;28;20334;-68
2022/08/23 02:32:59;;;;;;;;;;;;;;;18.02;nan;100043.25;4994205;28;19921;-67
2022/08/23 02:35:24;;;;;;;;;;;;;;;18.00;nan;100032.09;4994219;28;19917;-66
2022/08/23 02:37:51;;;;;;;;;;;;;;;18.00;nan;100037.44;4998034;28;20497;-69
2022/08/23 02:40:17;;;;;;;;;;;;;;;17.96;nan;100035.63;4998566;28;19921;-69
2022/08/23 02:42:42;;;;;;;;;;;;;;;17.94;nan;100046.56;4997067;28;19950;-68
2022/08/23 02:45:07;;;;;;;;;;;;;;;17.93;nan;100058.28;4998791;28;20562;-68
2022/08/23 02:47:35;;;;;;;;;;;;;;;17.94;nan;100057.22;4993566;28;19920;-68
2022/08/23 02:50:01;;;;;;;;;;;;;;;17.94;nan;100056.44;4997569;28;19921;-68
2022/08/23 02:52:26;;;;;;;;;;;;;;;17.95;nan;100068.66;4995421;28;19914;-68
2022/08/23 02:54:51;;;;;;;;;;;;;;;17.96;nan;100051.63;4995669;28;19917;-68
2022/08/23 02:57:16;;;;;;;;;;;;;;;17.88;nan;100050.34;4992306;28;19964;-69
2022/08/23 02:59:42;;;;;;;;;;;;;;;17.82;nan;100067.47;4994346;28;20315;-69
2022/08/23 03:02:07;;;;;;;;;;;;;;;17.78;nan;100051.22;4992666;28;19920;-68
2022/08/23 03:04:32;;;;;;;;;;;;;;;17.80;nan;100067.72;4989594;28;19931;-68
2022/08/23 03:06:58;;;;;;;;;;;;;;;17.81;nan;100057.88;4990346;28;19917;-69
2022/08/23 03:09:23;;;;;;;;;;;;;;;17.80;nan;100064.25;4990938;28;19913;-69
2022/08/23 03:11:49;;;;;;;;;;;;;;;17.79;nan;100065.31;4992917;28;19914;-69
2022/08/23 03:14:14;;;;;;;;;;;;;;;17.76;nan;100064.00;4993224;28;20459;-69
2022/08/23 03:16:40;;;;;;;;;;;;;;;17.78;nan;100059.19;4995374;28;20420;-69
2022/08/23 03:19:05;;;;;;;;;;;;;;;17.78;nan;100061.84;4987773;28;20451;-69
2022/08/23 03:21:30;;;;;;;;;;;;;;;17.77;nan;100065.63;4990316;28;19917;-69
2022/08/23 03:23:56;;;;;;;;;;;;;;;17.78;nan;100051.22;5000893;28;19916;-69
2022/08/23 03:26:21;;;;;;;;;;;;;;;17.79;nan;100057.31;4996716;28;19918;-69
2022/08/23 03:28:46;;;;;;;;;;;;;;;17.82;nan;100062.13;4993719;28;19913;-68
2022/08/23 03:31:13;;;;;;;;;;;;;;;17.83;nan;100064.50;4995051;28;19936;-68
2022/08/23 03:33:39;;;;;;;;;;;;;;;17.85;nan;100065.03;4993949;28;19987;-68
2022/08/23 03:36:06;;;;;;;;;;;;;;;17.87;nan;100066.63;4990019;28;19983;-68
2022/08/23 03:38:32;;;;;;;;;;;;;;;17.86;nan;100068.47;4990715;28;19926;-68
2022/08/23 03:41:00;;;;;;;;;;;;;;;17.87;nan;100063.97;4995048;28;19955;-68
2022/08/23 03:43:25;;;;;;;;;;;;;;;17.83;nan;100074.38;4993989;28;19949;-67
2022/08/23 03:45:50;;;;;;;;;;;;;;;17.84;nan;100078.63;4999053;28;19949;-69
2022/08/23 03:48:16;;;;;;;;;;;;;;;17.80;nan;100074.91;4989917;28;19963;-68
2022/08/23 03:50:41;;;;;;;;;;;;;;;17.81;nan;100076.50;4992758;28;20403;-68
2022/08/23 03:53:07;;;;;;;;;;;;;;;17.80;nan;100081.06;4989375;28;19914;-68
2022/08/23 03:55:32;;;;;;;;;;;;;;;17.83;nan;100090.34;4994478;28;19918;-68
2022/08/23 03:57:57;;;;;;;;;;;;;;;17.85;nan;100085.53;4991982;28;19917;-67
2022/08/23 04:00:23;;;;;;;;;;;;;;;17.88;nan;100092.97;4993111;28;19922;-68
2022/08/23 04:02:48;;;;;;;;;;;;;;;17.91;nan;100103.06;4996850;28;19913;-68
2022/08/23 04:05:13;;;;;;;;;;;;;;;17.93;nan;100102.78;4992844;28;19917;-68
2022/08/23 04:07:39;;;;;;;;;;;;;;;17.96;nan;100104.91;4994064;28;19939;-68
2022/08/23 04:10:05;;;;;;;;;;;;;;;17.98;nan;100095.56;4993885;28;20287;-67
2022/08/23 04:12:31;;;;;;;;;;;;;;;17.99;nan;100105.13;4995048;28;19920;-68
2022/08/23 04:14:56;;;;;;;;;;;;;;;18.01;nan;100108.31;4995973;28;19913;-69
2022/08/23 04:17:21;;;;;;;;;;;;;;;18.01;nan;100108.31;4992146;28;19928;-67
2022/08/23 04:19:47;;;;;;;;;;;;;;;18.03;nan;100108.81;4999011;28;20367;-68
2022/08/23 04:22:13;;;;;;;;;;;;;;;18.05;nan;100105.84;4997684;28;19925;-68
2022/08/23 04:24:39;;;;;;;;;;;;;;;18.07;nan;100101.03;4995093;28;20027;-69
2022/08/23 04:27:05;;;;;;;;;;;;;;;18.09;nan;100106.09;4995538;28;19976;-68
2022/08/23 04:29:30;;;;;;;;;;;;;;;18.11;nan;100098.63;4993636;28;19972;-69
2022/08/23 04:31:55;;;;;;;;;;;;;;;18.13;nan;100109.78;4996343;28;19918;-69
2022/08/23 04:34:21;;;;;;;;;;;;;;;18.15;nan;100091.63;4997803;28;20435;-69
2022/08/23 04:36:46;;;;;;;;;;;;;;;;;;5000227;28;20349;-68
2022/08/23 04:39:11;;;;;;;;;;;;;;;18.21;nan;100101.16;4991899;28;19932;-67
2022/08/23 04:44:21;;;;;;;;;;;;;;;18.26;nan;100085.13;4991781;28;20512;-68
2022/08/23 04:46:47;;;;;;;;;;;;;;;18.28;nan;100085.63;4994346;28;19925;-68
2022/08/23 04:49:13;;;;;;;;;;;;;;;18.32;nan;100091.22;4988694;28;19921;-68
2022/08/23 04:51:38;;;;;;;;;;;;;;;18.33;nan;100085.56;4986755;28;19956;-69
2022/08/23 04:54:04;;;;;;;;;;;;;;;18.34;nan;100089.84;4995017;28;20380;-68
2022/08/23 04:56:30;;;;;;;;;;;;;;;18.33;nan;100085.56;4995466;28;19913;-69
2022/08/23 04:58:55;;;;;;;;;;;;;;;18.35;nan;100090.63;4989113;28;19976;-69
2022/08/23 05:01:23;;;;;;;;;;;;;;;18.34;nan;100076.53;4993347;28;19917;-69
2022/08/23 05:03:48;;;;;;;;;;;;;;;18.36;nan;100074.34;4994496;28;20311;-69
2022/08/23 05:06:13;;;;;;;;;;;;;;;18.38;nan;100074.84;4990976;28;19964;-69
2022/08/23 05:08:39;;;;;;;;;;;;;;;18.40;nan;100074.56;4992731;28;19957;-68
2022/08/23 05:11:06;;;;;;;;;;;;;;;18.42;nan;100083.88;4994714;28;20274;-69
2022/08/23 05:13:33;;;;;;;;;;;;;;;18.46;nan;100095.56;4989413;28;19925;-69
2022/08/23 05:15:58;;;;;;;;;;;;;;;18.48;nan;100088.09;4992676;28;19921;-69
2022/08/23 05:18:24;;;;;;;;;;;;;;;18.52;nan;100084.84;4995390;28;19921;-67
2022/08/23 05:20:49;;;;;;;;;;;;;;;;;;4996301;28;19920;-68
2022/08/23 05:23:14;;;;;;;;;;;;;;;18.56;nan;100091.19;4992954;28;19972;-71
2022/08/23 05:25:49;;;;;;;;;;;;;;;18.56;nan;100078.66;4995599;28;19910;-71
2022/08/23 05:28:34;;;;;;;;;;;;;;;18.57;nan;100098.09;4990035;28;20287;-70
2022/08/23 05:31:02;;;;;;;;;;;;;;;18.60;nan;100102.84;4994159;28;20395;-70
2022/08/23 05:33:28;;;;;;;;;;;;;;;18.62;nan;100106.03;4990246;28;19914;-71
2022/08/23 05:35:53;;;;;;;;;;;;;;;18.65;nan;100119.63;4992818;28;19960;-70
2022/08/23 05:38:19;;;;;;;;;;;;;;;18.68;nan;100110.25;4993111;28;19913;-72
2022/08/23 05:40:47;;;;;;;;;;;;;;;18.71;nan;100107.00;5006969;28;19930;-71
2022/08/23 05:43:13;;;;;;;;;;;;;;;18.73;nan;100118.19;4997281;28;19914;-71
2022/08/23 05:45:38;;;;;;;;;;;;;;;18.74;nan;100117.09;4999958;28;19917;-70
2022/08/23 05:48:03;;;;;;;;;;;;;;;18.77;nan;100121.09;4993715;28;20391;-71
2022/08/23 05:50:29;;;;;;;;;;;;;;;18.80;nan;100144.53;4999884;28;19924;-71
2022/08/23 05:52:54;;;;;;;;;;;;;;;18.82;nan;100132.50;4993605;28;19916;-71
2022/08/23 05:55:20;;;;;;;;;;;;;;;18.85;nan;100136.47;4999655;28;19909;-71
2022/08/23 05:57:45;;;;;;;;;;;;;;;18.85;nan;100145.25;4997371;28;20392;-71
2022/08/23 06:00:14;;;;;;;;;;;;;;;18.86;nan;100148.72;4994155;28;19921;-71
2022/08/23 06:02:39;;;;;;;;;;;;;;;18.87;nan;100143.09;4994971;28;19909;-71
2022/08/23 06:05:05;;;;;;;;;;;;;;;18.85;nan;100157.81;4998121;28;20367;-71
2022/08/23 06:07:32;;;;;;;;;;;;;;;18.84;nan;100156.22;4989910;28;19914;-71
2022/08/23 06:09:57;;;;;;;;;;;;;;;18.86;nan;100138.81;4992633;28;19909;-71
2022/08/23 06:12:24;;;;;;;;;;;;;;;18.89;nan;100142.78;4995379;28;20393;-72
2022/08/23 06:14:49;;;;;;;;;;;;;;;18.89;nan;100148.94;5013694;28;19920;-71
2022/08/23 06:17:14;;;;;;;;;;;;;;;18.92;nan;100161.72;4996939;28;20359;-70
2022/08/23 06:19:40;;;;;;;;;;;;;;;18.95;nan;100157.69;4995040;28;19921;-71
2022/08/23 06:22:08;;;;;;;;;;;;;;;18.98;nan;100156.31;4996974;28;20298;-71
2022/08/23 06:24:39;;;;;;;;;;;;;;;19.02;nan;100158.13;4998694;28;20283;-72
2022/08/23 06:27:04;;;;;;;;;;;;;;;19.06;nan;100155.69;4996492;28;19910;-73
2022/08/23 06:29:30;;;;;;;;;;;;;;;19.07;nan;100158.03;4994803;28;19917;-72
2022/08/23 06:31:55;;;;;;;;;;;;;;;19.08;nan;100158.84;4999023;28;20011;-74
2022/08/23 06:34:34;;;;;;;;;;;;;;;19.09;nan;100157.78;4988610;28;19914;-72
2022/08/23 06:37:06;;;;;;;;;;;;;;;19.12;nan;100155.31;5000456;28;19909;-72
2022/08/23 06:39:31;;;;;;;;;;;;;;;19.15;nan;100180.63;4998734;28;19918;-73
2022/08/23 06:41:59;;;;;;;;;;;;;;;19.15;nan;100166.50;4997091;28;19925;-73
2022/08/23 06:44:26;;;;;;;;;;;;;;;19.20;nan;100177.09;4998416;28;19920;-73
2022/08/23 06:46:51;;;;;;;;;;;;;;;19.22;nan;100175.72;4989147;28;19956;-72
2022/08/23 06:49:17;;;;;;;;;;;;;;;19.22;nan;100181.06;4994274;28;20042;-71
2022/08/23 06:51:44;;;;;;;;;;;;;;;19.27;nan;100186.31;4989951;28;20299;-71
2022/08/23 06:54:11;;;;;;;;;;;;;;;19.30;nan;100188.44;4987884;28;19911;-71
2022/08/23 06:56:37;;;;;;;;;;;;;;;19.33;nan;100174.50;4991884;28;19921;-71
2022/08/23 06:59:05;;;;;;;;;;;;;;;19.36;nan;100188.38;4988342;28;20436;-70
2022/08/23 07:01:51;;;;;;;;;;;;;;;19.39;nan;100185.13;5005901;28;19933;-71
2022/08/23 07:04:18;;;;;;;;;;;;;;;19.41;nan;100207.00;4989693;28;20518;-69
2022/08/23 07:06:44;;;;;;;;;;;;;;;19.45;nan;100191.97;4990240;28;19914;-70
2022/08/23 07:09:09;;;;;;;;;;;;;;;19.35;nan;100182.25;4986461;28;19945;-70
2022/08/23 07:11:34;;;;;;;;;;;;;;;19.52;nan;100205.78;4991037;28;20460;-68
2022/08/23 07:14:01;;;;;;;;;;;;;;;19.55;nan;100230.00;4986688;28;20394;-70
2022/08/23 07:16:53;;;;;;;;;;;;;;;19.56;nan;100217.44;4992470;28;19921;-69
2022/08/23 07:19:20;;;;;;;;;;;;;;;19.60;nan;100225.69;4988209;28;19921;-70
2022/08/23 07:21:45;;;;;;;;;;;;;;;19.64;nan;100232.84;4991996;28;19997;-71
2022/08/23 07:24:12;;;;;;;;;;;;;;;19.66;nan;100233.34;4989862;28;20000;-71
2022/08/23 07:26:38;;;;;;;;;;;;;;;19.70;nan;100230.91;4993005;28;20519;-71
2022/08/23 07:29:04;;;;;;;;;;;;;;;19.71;nan;100225.28;4989362;28;20001;-71
2022/08/23 07:31:31;;;;;;;;;;;;;;;19.75;nan;100230.81;4991444;28;20584;-71
2022/08/23 07:33:57;;;;;;;;;;;;;;;19.77;nan;100232.13;4992818;28;19968;-72
2022/08/23 07:36:25;;;;;;;;;;;;;;;19.83;nan;100240.09;5004899;28;19960;-72
2022/08/23 07:38:51;;;;;;;;;;;;;;;19.86;nan;100239.50;4991342;28;20162;-72
2022/08/23 07:41:17;;;;;;;;;;;;;;;19.90;nan;100235.94;4994735;28;19914;-72
2022/08/23 07:43:42;;;;;;;;;;;;;;;19.94;nan;100244.97;4990945;28;19960;-71
2022/08/23 07:46:08;;;;;;;;;;;;;;;19.99;nan;100244.09;4988836;28;20007;-72
2022/08/23 07:48:34;;;;;;;;;;;;;;;20.01;nan;100247.25;4989217;28;19914;-72
2022/08/23 07:51:01;;;;;;;;;;;;;;;20.05;nan;100245.59;5011699;28;20036;-71
2022/08/23 07:53:27;;;;;;;;;;;;;;;20.09;nan;100243.94;4995136;28;19913;-70
2022/08/23 07:55:53;;;;;;;;;;;;;;;20.14;nan;100246.53;4999278;28;19967;-70
2022/08/23 07:58:19;;;;;;;;;;;;;;;20.20;nan;100249.91;4993103;28;20623;-70
2022/08/23 08:00:45;;;;;;;;;;;;;;;20.28;nan;100243.09;4999582;28;19914;-70
2022/08/23 08:03:10;;;;;;;;;;;;;;;20.33;nan;100254.50;4993254;28;20380;-71
2022/08/23 08:05:36;;;;;;;;;;;;;;;20.39;nan;100252.53;4998771;28;19917;-72
2022/08/23 08:08:02;;;;;;;;;;;;;;;20.42;nan;100254.59;4995091;28;19918;-70
2022/08/23 08:10:28;;;;;;;;;;;;;;;20.48;nan;100258.78;4995401;28;19916;-71
2022/08/23 08:12:53;;;;;;;;;;;;;;;20.51;nan;100239.47;4995759;28;20331;-72
2022/08/23 08:15:19;;;;;;;;;;;;;;;20.56;nan;100252.00;4991384;28;19963;-72
2022/08/23 08:17:48;;;;;;;;;;;;;;;20.61;nan;100254.56;4994399;28;20040;-70
2022/08/23 08:20:14;;;;;;;;;;;;;;;20.67;nan;100241.91;4993799;28;19918;-69
2022/08/23 08:22:40;;;;;;;;;;;;;;;20.72;nan;100233.78;5005070;28;19933;-71
2022/08/23 08:25:05;;;;;;;;;;;;;;;20.76;nan;100226.75;5002655;28;19957;-72
2022/08/23 08:27:31;;;;;;;;;;;;;;;20.80;nan;100233.09;5004571;28;19956;-72
2022/08/23 08:29:56;;;;;;;;;;;;;;;20.84;nan;100234.09;4995735;28;20367;-72
2022/08/23 08:32:22;;;;;;;;;;;;;;;20.88;nan;100234.28;4998601;28;19917;-72
2022/08/23 08:34:47;;;;;;;;;;;;;;;20.92;nan;100245.97;4995809;28;19910;-71
2022/08/23 08:37:12;;;;;;;;;;;;;;;20.92;nan;100230.69;4996629;28;19914;-72
2022/08/23 08:39:44;;;;;;;;;;;;;;;20.97;nan;100244.00;5002118;28;20390;-71
2022/08/23 08:42:12;;;;;;;;;;;;;;;21.02;nan;100229.72;4998181;28;20029;-72
2022/08/23 08:44:52;;;;;;;;;;;;;;;21.08;nan;100235.78;5017351;28;19988;-71
2022/08/23 08:47:29;;;;;;;;;;;;;;;21.14;nan;100251.44;5005553;28;19909;-71
2022/08/23 08:50:01;;;;;;;;;;;;;;;21.20;nan;100257.47;5000429;28;19910;-71
2022/08/23 08:52:48;;;;;;;;;;;;;;;21.24;nan;100229.00;5017546;28;19921;-70
2022/08/23 08:55:20;;;;;;;;;;;;;;;21.27;nan;100265.91;5000434;28;19976;-71
2022/08/23 08:57:47;;;;;;;;;;;;;;;21.27;nan;100265.91;4994489;28;20512;-70
2022/08/23 09:00:21;;;;;;;;;;;;;;;21.33;nan;100274.59;4995463;28;20013;-71
2022/08/23 09:02:46;;;;;;;;;;;;;;;21.38;nan;100267.28;4995254;28;19921;-71
2022/08/23 09:05:15;;;;;;;;;;;;;;;21.41;nan;100268.59;4988463;28;19917;-71
2022/08/23 09:07:50;;;;;;;;;;;;;;;21.48;nan;100273.50;4993249;28;19914;-71
2022/08/23 09:10:40;;;;;;;;;;;;;;;21.50;nan;100263.28;4992004;28;19909;-67
2022/08/23 09:13:15;;;;;;;;;;;;;;;21.54;nan;100264.28;4952258;28;20352;-70
2022/08/23 09:15:45;;;;;;;;;;;;;;;21.56;nan;100272.81;4955578;28;19910;-68
2022/08/23 09:18:11;;;;;;;;;;;;;;;21.62;nan;100268.91;4958715;28;19914;-69
2022/08/23 09:20:38;;;;;;;;;;;;;;;21.66;nan;100272.59;4957045;28;20480;-67
2022/08/23 09:23:06;;;;;;;;;;;;;;;21.67;nan;100250.06;4953553;28;20004;-69
2022/08/23 09:25:32;;;;;;;;;;;;;;;21.67;nan;100269.63;4955906;28;19921;-69
2022/08/23 09:27:57;;;;;;;;;;;;;;;21.69;nan;100263.16;4956027;28;19925;-69
2022/08/23 09:30:42;;;;;;;;;;;;;;;21.72;nan;100268.72;4956528;28;19914;-69
2022/08/23 09:33:25;;;;;;;;;;;;;;;21.77;nan;100249.84;4953482;28;19911;-69
2022/08/23 09:36:21;;;;;;;;;;;;;;;21.84;nan;100255.56;4956352;28;19914;-70
2022/08/23 09:39:05;;;;;;;;;;;;;;;21.92;nan;100282.75;4952531;28;19918;-70
2022/08/23 09:41:35;;;;;;;;;;;;;;;21.94;nan;100262.56;4961559;28;19916;-71
2022/08/23 09:44:01;;;;;;;;;;;;;;;22.00;nan;100255.97;4931476;29;20375;-71
2022/08/23 09:46:29;;;;;;;;;;;;;;;22.05;nan;100257.75;4957487;28;19918;-70
2022/08/23 09:48:57;;;;;;;;;;;;;;;22.11;nan;100240.44;4961917;28;19918;-70
2022/08/23 09:51:26;;;;;;;;;;;;;;;22.15;nan;100268.25;4999628;28;19920;-70
2022/08/23 09:54:11;;;;;;;;;;;;;;;22.18;nan;100273.00;5010461;28;19913;-70
2022/08/23 09:56:39;;;;;;;;;;;;;;;22.23;nan;100280.16;4992524;28;20005;-69
2022/08/23 09:59:21;;;;;;;;;;;;;;;22.27;nan;100249.72;4997592;28;19999;-69
2022/08/23 10:01:49;;;;;;;;;;;;;;;22.31;nan;100266.00;4999981;28;20004;-69
2022/08/23 10:04:37;;;;;;;;;;;;;;;22.33;nan;100271.06;4994682;28;19957;-68
2022/08/23 10:07:21;;;;;;;;;;;;;;;22.33;nan;100271.06;4999962;28;20334;-67
2022/08/23 10:09:47;;;;;;;;;;;;;;;22.33;nan;100263.00;5002038;28;19944;-69
2022/08/23 10:12:13;;;;;;;;;;;;;;;22.36;nan;100257.03;4997612;28;19910;-69
2022/08/23 10:14:38;;;;;;;;;;;;;;;22.28;nan;100245.94;5000935;28;20436;-69
2022/08/23 10:17:19;;;;;;;;;;;;;;;22.29;nan;100268.19;4996442;28;19910;-69
2022/08/23 10:19:53;;;;;;;;;;;;;;;22.33;nan;100265.69;4998460;28;19926;-70
2022/08/23 10:22:20;;;;;;;;;;;;;;;22.34;nan;100269.94;5003456;28;19910;-68
2022/08/23 10:24:47;;;;;;;;;;;;;;;22.33;nan;100273.75;4993935;28;19910;-69
2022/08/23 10:30:05;;;;;;;;;;;;;;;22.32;nan;100269.50;4998144;28;20715;-70
2022/08/23 10:32:49;;;;;;;;;;;;;;;22.35;nan;100272.34;4998125;28;19910;-70
2022/08/23 10:35:14;;;;;;;;;;;;;;;22.37;nan;100290.81;4996254;28;20028;-71
2022/08/23 10:37:45;;;;;;;;;;;;;;;22.36;nan;100289.22;4997892;28;20727;-71
2022/08/23 10:40:24;;;;;;;;;;;;;;;22.36;nan;100287.31;4998844;28;19918;-72
2022/08/23 10:43:05;;;;;;;;;;;;;;;22.37;nan;100290.81;4994468;28;20008;-71
2022/08/23 10:45:31;;;;;;;;;;;;;;;22.36;nan;100287.31;4995223;28;19918;-71
2022/08/23 10:48:12;;;;;;;;;;;;;;;22.34;nan;100283.38;4989939;28;19949;-71
2022/08/23 10:50:50;;;;;;;;;;;;;;;22.36;nan;100284.63;4992371;28;19959;-72
2022/08/23 10:53:16;;;;;;;;;;;;;;;22.37;nan;100280.88;4994025;28;19910;-72
2022/08/23 10:56:03;;;;;;;;;;;;;;;22.38;nan;100269.03;4991207;28;19913;-70
2022/08/23 10:58:32;;;;;;;;;;;;;;;22.41;nan;100263.06;4998357;28;19953;-69
2022/08/23 11:00:58;;;;;;;;;;;;;;;22.42;nan;100270.00;4996298;28;19916;-69
2022/08/23 11:03:36;;;;;;;;;;;;;;;22.43;nan;100263.53;4997568;28;20009;-69
2022/08/23 11:06:20;;;;;;;;;;;;;;;22.47;nan;100275.25;5000075;28;19918;-70
2022/08/23 11:08:46;;;;;;;;;;;;;;;22.50;nan;100263.88;4998747;28;19963;-71
2022/08/23 11:11:31;;;;;;;;;;;;;;;22.54;nan;100265.97;5000618;28;19917;-70
2022/08/23 11:13:56;;;;;;;;;;;;;;;22.51;nan;100275.44;4992103;28;19952;-71
2022/08/23 11:16:29;;;;;;;;;;;;;;;22.56;nan;100261.09;4998655;28;20364;-71
2022/08/23 11:18:55;;;;;;;;;;;;;;;22.58;nan;100267.72;4998005;28;20380;-71
2022/08/23 11:21:24;;;;;;;;;;;;;;;22.60;nan;100272.78;4999005;28;19916;-71
2022/08/23 11:23:49;;;;;;;;;;;;;;;22.61;nan;100260.97;4999022;28;19917;-71
2022/08/23 11:26:21;;;;;;;;;;;;;;;22.63;nan;100267.59;4997023;28;19917;-71
2022/08/23 11:28:46;;;;;;;;;;;;;;;22.66;nan;100250.88;4998760;28;19940;-71
2022/08/23 11:31:21;;;;;;;;;;;;;;;22.69;nan;100236.81;5000666;28;19913;-71
2022/08/23 11:33:49;;;;;;;;;;;;;;;22.71;nan;100250.72;4996876;28;19917;-71
2022/08/23 11:36:20;;;;;;;;;;;;;;;22.72;nan;100259.56;4999946;28;20007;-70
2022/08/23 11:38:45;;;;;;;;;;;;;;;22.73;nan;100250.44;4994580;28;19937;-70
2022/08/23 11:41:17;;;;;;;;;;;;;;;22.73;nan;100251.22;4998066;28;19909;-71
2022/08/23 11:43:44;;;;;;;;;;;;;;;22.75;nan;100252.78;4997228;28;19910;-71
2022/08/23 11:46:09;;;;;;;;;;;;;;;;;;5003622;28;19997;-71
2022/08/23 11:48:38;;;;;;;;;;;;;;;22.78;nan;100239.53;5001368;28;20004;-70
2022/08/23 11:51:23;;;;;;;;;;;;;;;22.81;nan;100251.56;5005931;28;19917;-71
2022/08/23 11:53:48;;;;;;;;;;;;;;;22.82;nan;100205.63;5004482;28;19945;-71
2022/08/23 11:56:28;;;;;;;;;;;;;;;22.82;nan;100245.88;5004392;28;20398;-72
2022/08/23 11:59:01;;;;;;;;;;;;;;;22.83;nan;100219.81;4995562;28;19952;-70
2022/08/23 12:01:30;;;;;;;;;;;;;;;22.84;nan;100249.06;5005744;28;19917;-71
2022/08/23 12:04:09;;;;;;;;;;;;;;;22.89;nan;100218.56;5001639;28;19936;-71
2022/08/23 12:06:45;;;;;;;;;;;;;;;22.90;nan;100220.16;5001333;28;19917;-70
2022/08/23 12:09:23;;;;;;;;;;;;;;;22.87;nan;100226.16;4997710;28;19952;-73
2022/08/23 12:11:51;;;;;;;;;;;;;;;22.89;nan;100211.31;5014526;28;19917;-73
2022/08/23 12:14:35;;;;;;;;;;;;;;;22.92;nan;100220.63;5001102;28;20393;-73
2022/08/23 12:17:04;;;;;;;;;;;;;;;22.96;nan;100215.44;5013396;28;20318;-73
2022/08/23 12:19:45;;;;;;;;;;;;;;;23.01;nan;100218.81;4995635;28;19925;-73
2022/08/23 12:22:12;;;;;;;;;;;;;;;23.05;nan;100206.31;5003803;28;19914;-73
2022/08/23 12:24:43;;;;;;;;;;;;;;;23.09;nan;100217.22;4996762;28;19922;-72
2022/08/23 12:27:14;;;;;;;;;;;;;;;23.11;nan;100213.13;5000167;28;19913;-73
2022/08/23 12:29:58;;;;;;;;;;;;;;;23.16;nan;100225.63;4989871;28;20009;-74
2022/08/23 12:32:24;;;;;;;;;;;;;;;23.21;nan;100220.09;4990204;28;19913;-74
2022/08/23 12:34:49;;;;;;;;;;;;;;;23.25;nan;100231.81;4993096;28;20393;-74
2022/08/23 12:37:23;;;;;;;;;;;;;;;23.25;nan;100228.31;5009120;28;20476;-74
2022/08/23 12:39:53;;;;;;;;;;;;;;;23.26;nan;100228.00;4992893;28;19918;-74
2022/08/23 12:42:25;;;;;;;;;;;;;;;23.31;nan;100227.06;4993130;28;19965;-73
2022/08/23 12:45:00;;;;;;;;;;;;;;;23.34;nan;100224.56;5007187;28;20283;-73
2022/08/23 12:47:26;;;;;;;;;;;;;;;23.38;nan;100238.13;4999446;28;19913;-73
2022/08/23 12:50:03;;;;;;;;;;;;;;;23.39;nan;100242.38;4999338;28;19963;-72
2022/08/23 12:52:30;;;;;;;;;;;;;;;23.42;nan;100238.31;5002139;28;19932;-72
2022/08/23 12:54:56;;;;;;;;;;;;;;;23.45;nan;100235.78;4999619;28;20008;-73
2022/08/23 12:57:36;;;;;;;;;;;;;;;23.47;nan;100238.16;5001148;28;19917;-71
2022/08/23 13:00:20;;;;;;;;;;;;;;;23.48;nan;100224.38;4999695;28;21239;-72
2022/08/23 13:02:52;;;;;;;;;;;;;;;23.52;nan;100228.03;4992036;28;19960;-73
2022/08/23 13:05:26;;;;;;;;;;;;;;;23.48;nan;100219.00;5000144;28;19917;-73
2022/08/23 13:07:51;;;;;;;;;;;;;;;23.51;nan;100215.72;4994315;28;19914;-72
2022/08/23 13:10:17;;;;;;;;;;;;;;;23.54;nan;100220.44;5014674;28;20020;-73
2022/08/23 13:12:42;;;;;;;;;;;;;;;23.59;nan;100221.41;5000327;28;19913;-73
2022/08/23 13:15:08;;;;;;;;;;;;;;;23.56;nan;100180.59;4999601;28;19961;-73
2022/08/23 13:17:39;;;;;;;;;;;;;;;23.50;nan;100216.78;4996618;28;19971;-73
2022/08/23 13:20:08;;;;;;;;;;;;;;;23.54;nan;100219.66;4995295;28;19917;-72
2022/08/23 13:22:34;;;;;;;;;;;;;;;23.57;nan;100227.88;4991868;28;19940;-72